Latest Weather Observations for Holmes Reef

IDQ60801

Issued at 10:43 pm EST Wednesday 25 May 2022 (issued every 10 minutes, with the page automatically refreshed every 10 minutes)

About weather observations | Map of weather stations | Latest weather observations for QLD | Other Formats
Station Details ID: 200732 Name: HOLMES REEF Lat: -16.47 Lon: 147.87 Height: 1.9 m
Data from the previous 72 hours. | See also: Recent months at Holmes Reef
Date/Time
EST
Temp
°C
App
Temp
°C
Dew
Point
°C
Rel
Hum
%
Delta-T
°C
Wind Press
QNH
hPa
Press
MSL
hPa
Rain since
9am
mm
Dir  Spd
km/h
Gust
km/h
Spd
kts
Gust
kts
25/10:30pm 25.9 - - - - SE 26 30 14 16 1012.3 1012.2 -
25/10:00pm 26.0 - - - - SE 26 30 14 16 1012.4 1012.3 -
25/09:30pm 26.1 - - - - SE 26 30 14 16 1012.6 1012.5 -
25/09:00pm 26.0 - - - - SE 24 28 13 15 1012.9 1012.8 -
25/08:30pm 25.9 - - - - SE 28 32 15 17 1012.8 1012.7 -
25/08:00pm 26.0 - - - - SE 30 35 16 19 1012.6 1012.5 -
25/07:30pm 26.2 - - - - SE 28 32 15 17 1012.5 1012.4 -
25/07:00pm 26.2 - - - - ESE 22 32 12 17 1012.3 1012.2 -
25/06:30pm 25.9 - - - - SE 22 26 12 14 1012.1 1012.0 -
25/06:00pm 25.4 - - - - SSE 19 24 10 13 1012.0 1011.9 -
25/05:30pm 24.8 - - - - SSE 13 17 7 9 1011.8 1011.7 -
25/05:00pm 24.0 - - - - SSE 9 13 5 7 1011.7 1011.6 -
25/04:30pm 24.3 - - - - S 22 28 12 15 1011.8 1011.7 -
25/04:00pm 24.1 - - - - SSW 20 26 11 14 1011.6 1011.5 -
25/03:50pm 23.8 - - - - S 26 39 14 21 1011.6 1011.5 -
25/03:35pm 25.1 - - - - S 35 52 19 28 1011.2 1011.1 -
25/03:30pm 25.6 - - - - SSW 32 46 17 25 1011.6 1011.5 -
25/03:27pm 25.9 - - - - S 26 43 14 23 1011.6 1011.5 -
25/03:00pm 26.8 - - - - SSE 20 24 11 13 1011.3 1011.2 -
25/02:30pm 26.9 - - - - SSE 19 24 10 13 1011.3 1011.2 -
25/02:00pm 26.8 - - - - SE 19 24 10 13 1011.5 1011.4 -
25/01:30pm 26.4 - - - - SE 19 24 10 13 1011.6 1011.5 -
25/01:00pm 26.5 - - - - SE 20 24 11 13 1012.0 1011.9 -
25/12:30pm 26.4 - - - - SE 20 24 11 13 1012.3 1012.2 -
25/12:00pm 26.7 - - - - SE 20 24 11 13 1012.6 1012.5 -
25/11:30am 26.8 - - - - SSE 22 26 12 14 1013.1 1013.0 -
25/11:00am 26.5 - - - - SE 22 26 12 14 1013.5 1013.4 -
25/10:30am 26.3 - - - - SE 22 26 12 14 1013.8 1013.7 -
25/10:00am 26.5 - - - - SE 22 26 12 14 1014.1 1014.0 -
25/09:30am 26.2 - - - - SE 20 24 11 13 1014.1 1014.0 -
25/09:00am 26.3 - - - - SE 20 26 11 14 1014.1 1014.0 -
25/08:30am 26.2 - - - - SE 24 26 13 14 1014.1 1014.0 -
25/08:00am 26.2 - - - - SE 24 28 13 15 1013.9 1013.8 -
25/07:30am 26.2 - - - - SSE 20 26 11 14 1013.7 1013.6 -
25/07:00am 25.8 - - - - SE 20 22 11 12 1013.5 1013.4 -
25/06:30am 25.9 - - - - SE 20 24 11 13 1013.3 1013.2 -
25/06:00am 25.5 - - - - SE 24 28 13 15 1013.0 1012.9 -
25/05:30am 25.8 - - - - SE 24 28 13 15 1013.0 1012.9 -
25/05:00am 25.7 - - - - SSE 26 30 14 16 1012.9 1012.8 -
25/04:30am 25.4 - - - - SSE 26 32 14 17 1012.7 1012.6 -
25/04:00am 25.5 - - - - SSE 26 30 14 16 1012.6 1012.5 -
25/03:30am 25.3 - - - - SSE 24 32 13 17 1012.7 1012.6 -
25/03:00am 25.3 - - - - SE 30 33 16 18 1012.9 1012.8 -
25/02:30am 25.0 - - - - SE 24 30 13 16 1013.0 1012.9 -
25/02:00am 25.4 - - - - SE 26 32 14 17 1013.3 1013.2 -
25/01:30am 25.2 - - - - SE 28 32 15 17 1013.6 1013.5 -
25/01:00am 25.3 - - - - SE 30 35 16 19 1013.8 1013.7 -
25/12:30am 25.1 - - - - SE 28 32 15 17 1014.1 1014.0 -
25/12:00am 25.2 - - - - SE 32 35 17 19 1014.3 1014.2 -
 
Date/Time
EST
Temp
°C
App
Temp
°C
Dew
Point
°C
Rel
Hum
%
Delta-T
°C
Wind Press
QNH
hPa
Press
MSL
hPa
Rain since
9am
mm
Dir  Spd
km/h
Gust
km/h
Spd
kts
Gust
kts
24/11:30pm 25.3 - - - - SE 30 35 16 19 1014.5 1014.4 -
24/11:00pm 25.5 - - - - SE 30 35 16 19 1014.7 1014.6 -
24/10:30pm 25.4 - - - - SSE 30 35 16 19 1015.0 1014.9 -
24/10:00pm 25.6 - - - - SE 30 35 16 19 1015.1 1015.0 -
24/09:30pm 25.7 - - - - SSE 30 35 16 19 1015.1 1015.0 -
24/09:00pm 25.8 - - - - SSE 28 33 15 18 1015.2 1015.1 -
24/08:30pm 25.6 - - - - SSE 30 33 16 18 1015.1 1015.0 -
24/08:00pm 25.7 - - - - SE 30 35 16 19 1014.8 1014.7 -
24/07:30pm 25.9 - - - - SE 30 33 16 18 1014.7 1014.6 -
24/07:00pm 25.8 - - - - SE 32 35 17 19 1014.2 1014.1 -
24/06:30pm 25.9 - - - - SE 32 35 17 19 1013.9 1013.8 -
24/06:00pm 25.9 - - - - SE 32 35 17 19 1013.5 1013.4 -
24/05:30pm 25.9 - - - - SE 28 32 15 17 1013.0 1012.9 -
24/05:00pm 26.0 - - - - SE 30 33 16 18 1012.8 1012.7 -
24/04:30pm 25.9 - - - - SE 30 35 16 19 1012.5 1012.4 -
24/04:00pm 26.0 - - - - SE 32 37 17 20 1012.2 1012.1 -
24/03:30pm 26.0 - - - - SE 32 37 17 20 1012.0 1011.9 -
24/03:00pm 26.3 - - - - SE 30 35 16 19 1012.1 1012.0 -
24/02:30pm 25.9 - - - - SE 33 39 18 21 1012.0 1011.9 -
24/02:00pm 26.3 - - - - SE 32 37 17 20 1012.2 1012.1 -
24/01:30pm 26.2 - - - - SE 33 37 18 20 1012.4 1012.3 -
24/01:00pm 26.4 - - - - SE 33 37 18 20 1012.8 1012.7 -
24/12:30pm 26.2 - - - - SE 32 37 17 20 1013.2 1013.1 -
24/12:00pm 26.3 - - - - SE 32 35 17 19 1013.3 1013.2 -
24/11:30am 26.4 - - - - SE 32 35 17 19 1013.5 1013.4 -
24/11:00am 26.2 - - - - SE 32 37 17 20 1013.9 1013.8 -
24/10:30am 26.3 - - - - SE 32 37 17 20 1014.1 1014.0 -
24/10:00am 26.3 - - - - SE 33 39 18 21 1014.4 1014.3 -
24/09:30am 26.2 - - - - ESE 32 39 17 21 1014.5 1014.4 -
24/09:00am 26.4 - - - - SE 32 37 17 20 1014.5 1014.4 -
24/08:30am 26.3 - - - - SE 32 37 17 20 1014.3 1014.2 -
24/08:00am 26.3 - - - - SE 32 37 17 20 1014.1 1014.0 -
24/07:30am 26.3 - - - - SE 33 39 18 21 1013.9 1013.8 -
24/07:00am 26.2 - - - - SE 37 43 20 23 1013.4 1013.3 -
24/06:30am 26.1 - - - - SE 37 43 20 23 1013.2 1013.1 -
24/06:00am 26.2 - - - - SE 39 46 21 25 1013.2 1013.1 -
24/05:30am 26.2 - - - - SE 39 44 21 24 1012.8 1012.7 -
24/05:00am 26.0 - - - - SE 39 43 21 23 1012.5 1012.4 -
24/04:30am 25.6 - - - - ESE 33 39 18 21 1012.6 1012.5 -
24/04:00am 25.9 - - - - ESE 35 41 19 22 1012.5 1012.4 -
24/03:30am 26.2 - - - - SE 35 39 19 21 1012.4 1012.3 -
24/03:00am 26.2 - - - - ESE 32 39 17 21 1012.6 1012.5 -
24/02:30am 26.3 - - - - ESE 33 39 18 21 1012.8 1012.7 -
24/02:00am 26.4 - - - - ESE 33 39 18 21 1012.9 1012.8 -
24/01:30am 26.4 - - - - ESE 33 41 18 22 1013.1 1013.0 -
24/01:00am 26.5 - - - - ESE 32 37 17 20 1013.4 1013.3 -
24/12:30am 26.4 - - - - ESE 32 35 17 19 1013.6 1013.5 -
24/12:00am 26.5 - - - - ESE 30 35 16 19 1013.8 1013.7 -
 
Date/Time
EST
Temp
°C
App
Temp
°C
Dew
Point
°C
Rel
Hum
%
Delta-T
°C
Wind Press
QNH
hPa
Press
MSL
hPa
Rain since
9am
mm
Dir  Spd
km/h
Gust
km/h
Spd
kts
Gust
kts
23/11:30pm 26.5 - - - - ESE 33 39 18 21 1014.0 1013.9 -
23/11:00pm 26.6 - - - - ESE 32 37 17 20 1014.2 1014.1 -
23/10:30pm 26.4 - - - - SE 35 41 19 22 1014.3 1014.2 -
23/10:00pm 26.5 - - - - SE 35 39 19 21 1014.4 1014.3 -
23/09:30pm 26.6 - - - - SE 35 41 19 22 1014.4 1014.3 -
23/09:00pm 26.6 - - - - SE 32 37 17 20 1014.5 1014.4 -
23/08:30pm 26.5 - - - - SE 33 37 18 20 1014.6 1014.5 -
23/08:00pm 26.5 - - - - SE 35 43 19 23 1014.3 1014.2 -
23/07:30pm 26.4 - - - - SE 37 43 20 23 1014.0 1013.9 -
23/07:00pm 26.5 - - - - SE 33 37 18 20 1013.4 1013.3 -
23/06:30pm 27.0 - - - - SE 28 32 15 17 1013.3 1013.2 -
23/06:00pm 26.9 - - - - SE 28 32 15 17 1013.0 1012.9 -
23/05:30pm 26.9 - - - - SE 28 32 15 17 1012.6 1012.5 -
23/05:00pm 27.0 - - - - SE 30 35 16 19 1012.0 1011.9 -
23/04:30pm 26.9 - - - - SE 32 35 17 19 1012.1 1012.0 -
23/04:00pm 26.9 - - - - SE 30 35 16 19 1011.9 1011.8 -
23/03:30pm 26.9 - - - - SE 28 32 15 17 1011.9 1011.8 -
23/03:00pm 27.1 - - - - SE 30 35 16 19 1011.9 1011.8 -
23/02:30pm 26.9 - - - - SE 30 35 16 19 1012.2 1012.1 -
23/02:00pm 26.9 - - - - SE 30 33 16 18 1012.1 1012.0 -
23/01:30pm 26.9 - - - - SE 28 32 15 17 1012.1 1012.0 -
23/01:00pm 26.8 - - - - ESE 30 33 16 18 1012.3 1012.2 -
23/12:30pm 26.8 - - - - ESE 30 33 16 18 1012.6 1012.5 -
23/12:00pm 27.0 - - - - ESE 30 33 16 18 1013.1 1013.0 -
23/11:30am 26.9 - - - - ESE 30 35 16 19 1013.4 1013.3 -
23/11:00am 26.9 - - - - ESE 33 37 18 20 1013.6 1013.5 -
23/10:30am 27.1 - - - - SE 32 35 17 19 1013.9 1013.8 -
23/10:00am 27.0 - - - - ESE 33 37 18 20 1014.0 1013.9 -
23/09:30am 27.1 - - - - SE 33 39 18 21 1014.0 1013.9 -
23/09:00am 26.9 - - - - ESE 35 39 19 21 1013.8 1013.7 -
23/08:30am 26.9 - - - - ESE 33 39 18 21 1013.5 1013.4 -
23/08:00am 25.9 - - - - ESE 35 43 19 23 1013.2 1013.1 -
23/07:30am 26.5 - - - - ESE 33 37 18 20 1012.9 1012.8 -
23/07:00am 26.6 - - - - ESE 33 37 18 20 1012.7 1012.6 -
23/06:30am 26.8 - - - - ESE 35 41 19 22 1012.4 1012.3 -
23/06:00am 26.3 - - - - ESE 37 43 20 23 1012.0 1011.9 -
23/05:30am 26.3 - - - - ESE 33 39 18 21 1011.8 1011.7 -
23/05:00am 26.5 - - - - ESE 32 39 17 21 1011.6 1011.5 -
23/04:30am 26.1 - - - - SE 35 41 19 22 1011.3 1011.2 -
23/04:13am 25.9 - - - - ESE 32 44 17 24 1011.2 1011.1 -
23/04:00am 26.3 - - - - E 28 35 15 19 1011.2 1011.1 -
23/03:30am 26.2 - - - - ESE 30 35 16 19 1011.3 1011.2 -
23/03:00am 26.3 - - - - ESE 35 43 19 23 1011.2 1011.1 -
23/02:30am 26.1 - - - - SE 37 44 20 24 1011.3 1011.2 -
23/02:00am 26.5 - - - - ESE 37 44 20 24 1011.3 1011.2 -
23/01:30am 26.2 - - - - ESE 32 37 17 20 1011.7 1011.6 -
23/01:00am 25.5 - - - - SE 39 50 21 27 1012.1 1012.0 -
23/12:30am 26.1 - - - - ESE 35 43 19 23 1012.0 1011.9 -
23/12:00am 25.9 - - - - SE 39 46 21 25 1012.2 1012.1 -
 
Date/Time
EST
Temp
°C
App
Temp
°C
Dew
Point
°C
Rel
Hum
%
Delta-T
°C
Wind Press
QNH
hPa
Press
MSL
hPa
Rain since
9am
mm
Dir  Spd
km/h
Gust
km/h
Spd
kts
Gust
kts
22/11:30pm 26.2 - - - - SE 43 48 23 26 1012.1 1012.0 -
22/11:00pm 25.9 - - - - ESE 39 46 21 25 1012.4 1012.3 -

Other formats

Comma delimited format used in spreadsheet applications
http://www.bom.gov.au/fwo/IDQ60801/IDQ60801.94289.axf

JavaScript Object Notation format (JSON) in row-major order
http://www.bom.gov.au/fwo/IDQ60801/IDQ60801.94289.json

Data quality

Most of these data are generated automatically and are frequently updated. Quality checks on data are not normally performed. It is possible for incorrect values to appear. Refer to information at About Latest Weather Observations and please check the disclaimer before using these data.